createdAt,value
2023-04-02T00:01:39.016Z,66.00
2023-04-02T00:04:14.862Z,65.70
2023-04-02T00:06:45.856Z,65.10
2023-04-02T00:09:14.057Z,65.00
2023-04-02T00:11:42.975Z,65.20
2023-04-02T00:14:34.309Z,65.50
2023-04-02T00:17:05.145Z,65.50
2023-04-02T00:19:43.271Z,65.60
2023-04-02T00:22:16.330Z,66.40
2023-04-02T00:24:43.748Z,66.00
2023-04-02T00:27:12.786Z,65.70
2023-04-02T00:29:54.915Z,65.70
2023-04-02T00:32:27.964Z,65.50
2023-04-02T00:34:56.044Z,66.00
2023-04-02T00:37:28.272Z,65.50
2023-04-02T00:40:08.636Z,65.30
2023-04-02T00:42:40.207Z,65.60
2023-04-02T00:45:23.375Z,65.60
2023-04-02T00:47:52.307Z,65.50
2023-04-02T00:50:42.920Z,65.50
2023-04-02T00:53:17.507Z,65.50
2023-04-02T00:55:46.033Z,65.50
2023-04-02T00:58:36.754Z,65.60
2023-04-02T01:01:04.766Z,65.50
2023-04-02T01:03:37.030Z,65.30
2023-04-02T01:06:11.785Z,65.20
2023-04-02T01:09:01.277Z,65.20
2023-04-02T01:12:10.427Z,65.20
2023-04-02T01:15:07.838Z,65.10
2023-04-02T01:17:39.105Z,65.10
2023-04-02T01:20:36.739Z,64.90
2023-04-02T01:23:25.306Z,64.90
2023-04-02T01:26:14.737Z,64.80
2023-04-02T01:29:11.920Z,64.70
2023-04-02T01:31:40.539Z,64.60
2023-04-02T01:34:11.477Z,64.50
2023-04-02T01:36:41.842Z,64.50
2023-04-02T01:39:34.075Z,64.60
2023-04-02T01:42:13.722Z,64.60
2023-04-02T01:44:46.534Z,64.60
2023-04-02T01:47:17.366Z,64.60
2023-04-02T01:49:45.015Z,64.40
2023-04-02T01:52:26.760Z,64.40
2023-04-02T01:54:57.731Z,64.30
2023-04-02T01:57:25.530Z,64.30
2023-04-02T01:59:53.175Z,64.20
2023-04-02T02:02:22.141Z,64.40
2023-04-02T02:04:49.459Z,64.50
2023-04-02T02:07:20.686Z,64.50
2023-04-02T02:09:49.021Z,64.60
2023-04-02T02:12:16.539Z,64.40
2023-04-02T02:14:50.084Z,64.20
2023-04-02T02:17:21.632Z,64.20
2023-04-02T02:19:57.161Z,64.10
2023-04-02T02:22:29.581Z,64.10
2023-04-02T02:24:59.737Z,64.20
2023-04-02T02:27:44.306Z,64.30
2023-04-02T02:30:24.470Z,64.10
2023-04-02T02:33:06.953Z,64.00
2023-04-02T02:35:40.176Z,64.10
2023-04-02T02:38:24.408Z,65.00
2023-04-02T02:40:58.521Z,64.50
2023-04-02T02:43:27.526Z,64.60
2023-04-02T02:45:57.048Z,64.60
2023-04-02T02:48:34.233Z,64.50
2023-04-02T02:51:07.876Z,64.60
2023-04-02T02:53:54.379Z,64.60
2023-04-02T02:56:24.097Z,64.60
2023-04-02T02:58:53.275Z,64.50
2023-04-02T03:01:21.101Z,64.60
2023-04-02T03:03:50.360Z,64.50
2023-04-02T03:06:20.901Z,65.30
2023-04-02T03:09:22.367Z,65.20
2023-04-02T03:12:33.115Z,65.50
2023-04-02T03:15:18.816Z,65.40
2023-04-02T03:17:53.657Z,65.20
2023-04-02T03:20:29.210Z,65.20
2023-04-02T03:22:59.431Z,65.40
2023-04-02T03:25:29.312Z,65.90
2023-04-02T03:28:05.157Z,65.40
2023-04-02T03:30:41.205Z,65.20
2023-04-02T03:33:21.733Z,65.60
2023-04-02T03:36:21.707Z,65.20
2023-04-02T03:39:01.241Z,65.40
2023-04-02T03:41:45.069Z,65.90
2023-04-02T03:44:36.408Z,65.40
2023-04-02T03:47:12.727Z,65.40
2023-04-02T03:50:06.940Z,65.50
2023-04-02T03:52:38.586Z,65.30
2023-04-02T03:55:16.097Z,65.70
2023-04-02T03:58:01.024Z,66.00
2023-04-02T04:01:05.962Z,67.00
2023-04-02T04:03:44.486Z,66.70
2023-04-02T04:06:24.225Z,66.70
2023-04-02T04:09:10.250Z,66.40
2023-04-02T04:11:46.819Z,67.60
2023-04-02T04:14:19.408Z,68.00
2023-04-02T04:16:56.318Z,67.40
2023-04-02T04:19:57.926Z,67.40
2023-04-02T04:22:32.110Z,67.50
2023-04-02T04:25:18.372Z,67.60
2023-04-02T04:28:16.732Z,67.90
2023-04-02T04:31:11.027Z,67.30
2023-04-02T04:33:45.896Z,67.20
2023-04-02T04:36:32.322Z,67.00
2023-04-02T04:39:08.131Z,68.00
2023-04-02T04:41:38.244Z,67.50
2023-04-02T04:44:51.593Z,68.00
2023-04-02T04:47:31.135Z,67.90
2023-04-02T04:50:06.213Z,68.10
2023-04-02T04:52:36.876Z,67.60
2023-04-02T04:55:22.841Z,68.00
2023-04-02T04:57:54.802Z,68.00
2023-04-02T05:00:40.055Z,67.90
2023-04-02T05:03:28.621Z,68.30
2023-04-02T05:06:12.941Z,67.80
2023-04-02T05:08:45.480Z,67.70
2023-04-02T05:11:37.711Z,67.30
2023-04-02T05:14:12.363Z,67.60
2023-04-02T05:16:45.751Z,67.40
2023-04-02T05:19:17.284Z,68.10
2023-04-02T05:21:57.401Z,68.30
2023-04-02T05:24:58.749Z,68.40
2023-04-02T05:28:09.435Z,68.00
2023-04-02T05:31:06.019Z,67.80
2023-04-02T05:33:36.682Z,67.90
2023-04-02T05:36:08.028Z,67.60
2023-04-02T05:38:37.814Z,67.70
2023-04-02T05:41:22.453Z,67.60
2023-04-02T05:43:54.474Z,67.70
2023-04-02T05:46:27.395Z,67.60
2023-04-02T05:48:59.385Z,67.60
2023-04-02T05:51:38.690Z,67.50
2023-04-02T05:54:33.111Z,67.80
2023-04-02T05:57:08.932Z,67.70
2023-04-02T05:59:43.472Z,67.90
2023-04-02T06:02:45.245Z,68.60
2023-04-02T06:05:16.139Z,68.50
2023-04-02T06:07:53.634Z,68.40
2023-04-02T06:10:25.180Z,68.60
2023-04-02T06:13:03.619Z,68.30
2023-04-02T06:15:33.679Z,68.10
2023-04-02T06:18:20.543Z,68.10
2023-04-02T06:20:47.888Z,68.10
2023-04-02T06:23:20.873Z,68.10
2023-04-02T06:26:07.065Z,68.00
2023-04-02T06:28:48.714Z,68.00
2023-04-02T06:31:28.761Z,68.10
2023-04-02T06:33:56.816Z,68.10
2023-04-02T06:36:27.719Z,68.00
2023-04-02T06:39:04.819Z,68.50
2023-04-02T06:41:32.145Z,68.40
2023-04-02T06:44:14.579Z,68.20
2023-04-02T06:46:54.965Z,68.50
2023-04-02T06:49:51.630Z,68.50
2023-04-02T06:52:25.999Z,68.90
2023-04-02T06:54:53.950Z,68.60
2023-04-02T06:57:22.409Z,68.50
2023-04-02T06:59:49.774Z,68.50
2023-04-02T07:02:28.575Z,68.50
2023-04-02T07:05:04.965Z,68.40
2023-04-02T07:07:32.667Z,68.30
2023-04-02T07:09:59.841Z,68.90
2023-04-02T07:12:27.090Z,68.70
2023-04-02T07:14:54.276Z,69.20
2023-04-02T07:17:22.189Z,69.20
2023-04-02T07:19:51.261Z,69.70
2023-04-02T07:22:20.666Z,70.00
2023-04-02T07:24:48.002Z,69.50
2023-04-02T07:27:15.898Z,69.50
2023-04-02T07:29:49.253Z,69.50
2023-04-02T07:32:17.395Z,69.80
2023-04-02T07:34:45.338Z,69.70
2023-04-02T07:37:14.749Z,69.70
2023-04-02T07:39:42.386Z,69.40
2023-04-02T07:42:10.401Z,69.20
2023-04-02T07:44:37.670Z,69.00
2023-04-02T07:47:04.941Z,68.80
2023-04-02T07:49:32.057Z,68.60
2023-04-02T07:51:59.283Z,68.50
2023-04-02T07:54:27.356Z,68.60
2023-04-02T07:56:54.559Z,68.90
2023-04-02T07:59:24.413Z,69.10
2023-04-02T08:01:54.157Z,69.00
2023-04-02T08:04:22.592Z,69.00
2023-04-02T08:06:50.685Z,69.10
2023-04-02T08:09:17.841Z,69.20
2023-04-02T08:11:46.636Z,68.90
2023-04-02T08:14:14.206Z,68.90
2023-04-02T08:16:53.711Z,68.70
2023-04-02T08:19:21.536Z,68.70
2023-04-02T08:21:51.659Z,68.90
2023-04-02T08:24:19.387Z,69.10
2023-04-02T08:26:50.081Z,69.30
2023-04-02T08:29:18.835Z,69.40
2023-04-02T08:31:46.217Z,69.60
2023-04-02T08:34:14.336Z,69.80
2023-04-02T08:36:44.613Z,69.70
2023-04-02T08:39:12.686Z,69.90
2023-04-02T08:41:50.467Z,69.90
2023-04-02T08:44:50.626Z,70.10
2023-04-02T08:47:20.479Z,70.00
2023-04-02T08:49:58.996Z,69.70
2023-04-02T08:52:32.340Z,70.00
2023-04-02T08:55:13.504Z,70.30
2023-04-02T08:58:12.758Z,70.50
2023-04-02T09:00:45.081Z,70.10
2023-04-02T09:03:19.838Z,69.30
2023-04-02T09:05:51.695Z,68.30
2023-04-02T09:08:27.694Z,68.00
2023-04-02T09:11:12.225Z,68.40
2023-04-02T09:13:46.637Z,68.40
2023-04-02T09:16:23.199Z,68.60
2023-04-02T09:18:54.294Z,69.20
2023-04-02T09:21:45.184Z,69.10
2023-04-02T09:24:13.481Z,68.80
2023-04-02T09:26:40.637Z,68.40
2023-04-02T09:29:14.165Z,68.10
2023-04-02T09:31:50.680Z,67.40
2023-04-02T09:34:35.051Z,67.40
2023-04-02T09:37:14.935Z,67.30
2023-04-02T09:39:42.223Z,67.50
2023-04-02T09:42:36.470Z,67.00
2023-04-02T09:45:27.049Z,67.80
2023-04-02T09:47:56.325Z,68.30
2023-04-02T09:50:33.171Z,68.40
2023-04-02T09:53:26.605Z,68.40
2023-04-02T09:56:14.810Z,68.60
2023-04-02T09:58:44.435Z,68.40
2023-04-02T10:02:01.621Z,68.40
2023-04-02T10:04:46.975Z,68.10
2023-04-02T10:07:37.236Z,68.00
2023-04-02T10:10:17.571Z,68.30
2023-04-02T10:12:48.815Z,68.40
2023-04-02T10:15:22.610Z,69.30
2023-04-02T10:18:02.017Z,68.80
2023-04-02T10:20:39.041Z,68.90
2023-04-02T10:23:17.232Z,68.90
2023-04-02T10:26:20.814Z,68.30
2023-04-02T10:29:17.171Z,67.40
2023-04-02T10:31:59.646Z,67.60
2023-04-02T10:34:45.540Z,66.50
2023-04-02T10:37:25.581Z,65.80
2023-04-02T10:40:17.137Z,66.50
2023-04-02T10:43:23.821Z,65.60
2023-04-02T10:46:01.169Z,66.40
2023-04-02T10:48:41.757Z,67.00
2023-04-02T10:51:33.381Z,67.30
2023-04-02T10:54:40.293Z,67.80
2023-04-02T10:57:32.558Z,67.70
2023-04-02T11:00:25.516Z,68.30
2023-04-02T11:03:08.033Z,68.30
2023-04-02T11:05:57.821Z,69.10
2023-04-02T11:08:40.753Z,68.80
2023-04-02T11:11:17.559Z,68.80
2023-04-02T11:14:03.003Z,70.20
2023-04-02T11:16:30.400Z,69.80
2023-04-02T11:19:18.540Z,69.70
2023-04-02T11:22:05.067Z,69.40
2023-04-02T11:24:46.137Z,70.40
2023-04-02T11:27:22.237Z,70.20
2023-04-02T11:29:49.950Z,70.40
2023-04-02T11:32:27.552Z,70.50
2023-04-02T11:35:13.624Z,70.20
2023-04-02T11:37:45.776Z,69.00
2023-04-02T11:40:43.163Z,68.60
2023-04-02T11:43:35.849Z,68.30
2023-04-02T11:46:34.290Z,67.90
2023-04-02T11:49:32.403Z,68.30
2023-04-02T11:52:10.872Z,69.50
2023-04-02T11:54:41.762Z,70.10
2023-04-02T11:57:28.325Z,70.10
2023-04-02T12:00:23.139Z,71.20
2023-04-02T12:03:07.705Z,70.90
2023-04-02T12:05:46.315Z,71.60
2023-04-02T12:08:41.919Z,71.90
2023-04-02T12:11:42.264Z,71.70
2023-04-02T12:14:53.635Z,73.40
2023-04-02T12:17:38.403Z,73.90
2023-04-02T12:20:10.736Z,73.70
2023-04-02T12:22:59.989Z,74.00
2023-04-02T12:25:41.285Z,74.20
2023-04-02T12:28:11.521Z,74.10
2023-04-02T12:30:41.094Z,74.90
2023-04-02T12:33:30.008Z,75.10
2023-04-02T12:35:59.509Z,74.40
2023-04-02T12:38:29.875Z,74.10
2023-04-02T12:40:59.355Z,73.10
2023-04-02T12:43:35.093Z,73.30
2023-04-02T12:46:07.648Z,72.70
2023-04-02T12:48:36.505Z,72.20
2023-04-02T12:51:04.647Z,71.80
2023-04-02T12:53:37.711Z,71.50
2023-04-02T12:56:08.308Z,71.60
2023-04-02T12:58:45.475Z,71.80
2023-04-02T13:01:29.024Z,71.70
2023-04-02T13:04:05.047Z,71.00
2023-04-02T13:06:33.766Z,71.20
2023-04-02T13:09:03.811Z,70.80
2023-04-02T13:11:39.763Z,70.30
2023-04-02T13:14:16.660Z,70.70
2023-04-02T13:16:44.194Z,70.60
2023-04-02T13:19:17.432Z,70.60
2023-04-02T13:21:46.233Z,71.00
2023-04-02T13:24:21.903Z,70.80
2023-04-02T13:26:50.549Z,70.00
2023-04-02T13:29:25.504Z,70.60
2023-04-02T13:31:55.955Z,70.10
2023-04-02T13:34:23.190Z,70.50
2023-04-02T13:36:50.416Z,70.20
2023-04-02T13:39:19.413Z,70.10
2023-04-02T13:41:57.259Z,68.50
2023-04-02T13:44:32.066Z,69.70
2023-04-02T13:46:59.983Z,67.80
2023-04-02T13:49:27.868Z,68.30
2023-04-02T13:52:00.484Z,67.20
2023-04-02T13:54:53.212Z,67.70
2023-04-02T13:57:20.817Z,66.10
2023-04-02T13:59:48.229Z,65.40
2023-04-02T14:02:23.084Z,63.00
2023-04-02T14:04:55.792Z,63.70
2023-04-02T14:07:47.481Z,62.10
2023-04-02T14:10:32.711Z,62.80
2023-04-02T14:13:33.625Z,61.80
2023-04-02T14:16:19.990Z,61.70
2023-04-02T14:19:10.203Z,60.90
2023-04-02T14:22:04.914Z,59.30
2023-04-02T14:25:12.078Z,60.30
2023-04-02T14:28:03.913Z,58.40
2023-04-02T14:30:58.839Z,58.60
2023-04-02T14:33:35.229Z,59.00
2023-04-02T14:36:23.442Z,57.90
2023-04-02T14:39:20.264Z,58.80
2023-04-02T14:41:58.144Z,58.30
2023-04-02T14:44:30.511Z,58.80
2023-04-02T14:47:18.715Z,59.10
2023-04-02T14:49:49.727Z,59.60
2023-04-02T14:52:20.691Z,59.30
2023-04-02T14:55:01.852Z,59.40
2023-04-02T14:57:58.438Z,59.50
2023-04-02T15:00:58.779Z,59.50
2023-04-02T15:03:33.294Z,59.50
2023-04-02T15:06:08.362Z,59.70
2023-04-02T15:09:09.470Z,59.60
2023-04-02T15:11:41.195Z,59.50
2023-04-02T15:14:34.456Z,59.10
2023-04-02T15:17:01.665Z,59.10
2023-04-02T15:19:28.827Z,58.40
2023-04-02T15:22:17.304Z,58.30
2023-04-02T15:24:48.414Z,58.00
2023-04-02T15:27:34.110Z,58.20
2023-04-02T15:30:12.327Z,57.70
2023-04-02T15:32:41.900Z,57.60
2023-04-02T15:35:34.137Z,58.20
2023-04-02T15:38:22.818Z,58.20
2023-04-02T15:41:04.124Z,58.20
2023-04-02T15:43:35.476Z,56.90
2023-04-02T15:46:12.374Z,56.30
2023-04-02T15:48:42.640Z,55.90
2023-04-02T15:51:41.919Z,55.30
2023-04-02T15:54:19.091Z,56.10
2023-04-02T15:56:52.264Z,56.40
2023-04-02T16:00:01.555Z,56.80
2023-04-02T16:03:06.670Z,57.40
2023-04-02T16:05:50.175Z,57.40
2023-04-02T16:08:35.256Z,57.80
2023-04-02T16:11:02.411Z,57.50
2023-04-02T16:13:40.928Z,57.40
2023-04-02T16:16:39.668Z,57.70
2023-04-02T16:19:32.656Z,58.30
2023-04-02T16:22:33.264Z,58.20
2023-04-02T16:25:19.434Z,58.00
2023-04-02T16:28:10.511Z,58.10
2023-04-02T16:31:10.905Z,58.00
2023-04-02T16:33:50.942Z,58.10
2023-04-02T16:36:32.964Z,58.50
2023-04-02T16:39:37.360Z,58.40
2023-04-02T16:42:23.285Z,59.00
2023-04-02T16:45:26.227Z,59.30
2023-04-02T16:48:13.613Z,59.60
2023-04-02T16:51:17.432Z,59.90
2023-04-02T16:54:01.728Z,59.90
2023-04-02T16:57:08.233Z,59.80
2023-04-02T16:59:49.760Z,60.00
2023-04-02T17:02:35.240Z,60.60
2023-04-02T17:05:34.722Z,60.70
2023-04-02T17:08:32.550Z,60.60
2023-04-02T17:11:07.755Z,61.10
2023-04-02T17:14:07.673Z,60.60
2023-04-02T17:17:10.722Z,60.70
2023-04-02T17:19:40.614Z,61.20
2023-04-02T17:22:14.753Z,60.80
2023-04-02T17:24:50.126Z,61.10
2023-04-02T17:27:25.729Z,61.80
2023-04-02T17:29:59.128Z,61.60
2023-04-02T17:32:32.755Z,61.80
2023-04-02T17:35:17.951Z,61.30
2023-04-02T17:37:56.930Z,61.40
2023-04-02T17:40:40.455Z,61.50
2023-04-02T17:43:46.218Z,61.20
2023-04-02T17:46:45.792Z,61.40
2023-04-02T17:49:29.819Z,61.20
2023-04-02T17:52:06.064Z,61.30
2023-04-02T17:54:55.707Z,61.30
2023-04-02T17:57:44.383Z,61.60
2023-04-02T18:00:42.974Z,61.60
2023-04-02T18:03:30.807Z,61.00
2023-04-02T18:06:19.161Z,61.10
2023-04-02T18:09:12.223Z,61.20
2023-04-02T18:11:51.202Z,61.50
2023-04-02T18:14:18.273Z,61.50
2023-04-02T18:16:51.375Z,61.80
2023-04-02T18:19:31.243Z,61.70
2023-04-02T18:22:14.264Z,61.80
2023-04-02T18:24:53.113Z,61.70
2023-04-02T18:27:32.242Z,61.50
2023-04-02T18:30:33.186Z,61.50
2023-04-02T18:33:22.082Z,60.80
2023-04-02T18:36:23.191Z,61.40
2023-04-02T18:39:32.690Z,61.40
2023-04-02T18:42:13.305Z,61.30
2023-04-02T18:45:13.213Z,61.50
2023-04-02T18:47:47.111Z,61.40
2023-04-02T18:50:24.950Z,61.40
2023-04-02T18:52:52.188Z,61.00
2023-04-02T18:55:32.818Z,60.70
2023-04-02T18:58:20.609Z,60.30
2023-04-02T19:00:50.253Z,60.40
2023-04-02T19:03:27.659Z,59.90
2023-04-02T19:06:03.380Z,59.30
2023-04-02T19:08:33.285Z,59.40
2023-04-02T19:11:16.173Z,58.80
2023-04-02T19:13:45.179Z,59.00
2023-04-02T19:16:51.150Z,59.00
2023-04-02T19:19:39.659Z,58.70
2023-04-02T19:22:13.003Z,58.50
2023-04-02T19:25:03.071Z,58.60
2023-04-02T19:27:58.228Z,58.70
2023-04-02T19:30:57.971Z,58.40
2023-04-02T19:33:52.819Z,58.60
2023-04-02T19:36:41.646Z,58.70
2023-04-02T19:39:38.033Z,58.50
2023-04-02T19:42:43.872Z,58.80
2023-04-02T19:45:25.535Z,58.70
2023-04-02T19:47:56.416Z,58.70
2023-04-02T19:50:27.295Z,59.10
2023-04-02T19:52:55.493Z,58.70
2023-04-02T19:55:26.120Z,58.80
2023-04-02T19:57:57.828Z,59.30
2023-04-02T20:00:32.008Z,58.90
2023-04-02T20:03:02.019Z,58.80
2023-04-02T20:05:29.458Z,59.20
2023-04-02T20:07:56.830Z,59.10
2023-04-02T20:10:25.473Z,59.00
2023-04-02T20:12:52.780Z,59.10
2023-04-02T20:15:20.611Z,58.90
2023-04-02T20:17:49.419Z,59.20
2023-04-02T20:20:20.064Z,59.10
2023-04-02T20:22:48.614Z,59.00
2023-04-02T20:25:16.133Z,59.30
2023-04-02T20:27:43.398Z,59.30
2023-04-02T20:30:11.072Z,59.30
2023-04-02T20:32:38.811Z,59.30
2023-04-02T20:35:06.450Z,59.10
2023-04-02T20:37:33.593Z,59.30
2023-04-02T20:40:01.842Z,59.50
2023-04-02T20:42:31.303Z,59.50
2023-04-02T20:44:58.682Z,59.80
2023-04-02T20:47:26.161Z,59.70
2023-04-02T20:49:55.308Z,59.80
2023-04-02T20:52:26.138Z,59.80
2023-04-02T20:54:53.723Z,60.00
2023-04-02T20:57:22.292Z,59.90
2023-04-02T20:59:49.572Z,59.90
2023-04-02T21:02:17.127Z,60.00
2023-04-02T21:04:44.410Z,59.90
2023-04-02T21:07:11.859Z,59.90
2023-04-02T21:09:42.152Z,60.10
2023-04-02T21:12:09.348Z,60.10
2023-04-02T21:14:39.449Z,59.90
2023-04-02T21:17:07.583Z,59.90
2023-04-02T21:19:36.580Z,60.00
2023-04-02T21:22:04.576Z,60.00
2023-04-02T21:24:31.699Z,59.80
2023-04-02T21:27:01.045Z,59.90
2023-04-02T21:29:28.277Z,60.00
2023-04-02T21:31:55.983Z,60.00
2023-04-02T21:34:26.074Z,60.10
2023-04-02T21:36:53.614Z,60.30
2023-04-02T21:39:23.262Z,60.40
2023-04-02T21:41:53.289Z,61.00
2023-04-02T21:44:23.973Z,60.60
2023-04-02T21:46:53.663Z,60.80
2023-04-02T21:49:23.597Z,60.80
2023-04-02T21:51:54.248Z,61.20
2023-04-02T21:54:23.050Z,61.00
2023-04-02T21:56:50.555Z,61.80
2023-04-02T21:59:18.384Z,62.10
2023-04-02T22:01:50.578Z,62.50
2023-04-02T22:04:23.711Z,62.40
2023-04-02T22:06:52.870Z,62.90
2023-04-02T22:09:23.200Z,63.30
2023-04-02T22:11:54.663Z,63.00
2023-04-02T22:14:23.450Z,63.30
2023-04-02T22:16:51.995Z,63.40
2023-04-02T22:19:19.440Z,63.50
2023-04-02T22:21:47.683Z,63.60
2023-04-02T22:24:22.543Z,63.70
2023-04-02T22:26:52.687Z,63.70
2023-04-02T22:29:23.029Z,63.70
2023-04-02T22:31:52.422Z,63.50
2023-04-02T22:34:19.788Z,63.80
2023-04-02T22:36:47.274Z,63.50
2023-04-02T22:39:18.656Z,63.60
2023-04-02T22:41:46.968Z,63.50
2023-04-02T22:44:15.526Z,63.50
2023-04-02T22:46:46.005Z,63.30
2023-04-02T22:49:19.374Z,63.20
2023-04-02T22:51:50.032Z,63.00
2023-04-02T22:54:17.501Z,62.60
2023-04-02T22:56:45.733Z,62.10
2023-04-02T22:59:15.113Z,62.30
2023-04-02T23:01:42.346Z,62.20
2023-04-02T23:04:10.831Z,62.00
2023-04-02T23:06:38.053Z,62.00
2023-04-02T23:09:06.523Z,62.20
2023-04-02T23:11:37.995Z,62.50
2023-04-02T23:14:05.239Z,62.60
2023-04-02T23:16:33.579Z,62.60
2023-04-02T23:19:01.629Z,62.50
2023-04-02T23:21:29.721Z,62.40
2023-04-02T23:23:57.178Z,62.50
2023-04-02T23:26:31.842Z,62.60
2023-04-02T23:29:00.804Z,62.70
2023-04-02T23:31:35.668Z,62.60
2023-04-02T23:34:03.255Z,62.60
2023-04-02T23:36:33.108Z,62.60
2023-04-02T23:39:12.439Z,62.80
2023-04-02T23:41:41.803Z,62.70
2023-04-02T23:44:09.750Z,62.90
2023-04-02T23:46:37.151Z,62.90
2023-04-02T23:49:04.567Z,62.90
2023-04-02T23:51:33.508Z,63.00
2023-04-02T23:54:00.978Z,62.90
2023-04-02T23:56:29.753Z,62.70
2023-04-02T23:58:56.968Z,62.90
